createdAt,value
2019-05-01T00:00:28.635Z,15.27
2019-05-01T00:03:21.740Z,16.67
2019-05-01T00:05:53.933Z,15.20
2019-05-01T00:08:22.920Z,16.60
2019-05-01T00:10:52.152Z,16.50
2019-05-01T00:13:21.061Z,16.13
2019-05-01T00:15:51.045Z,17.13
2019-05-01T00:18:20.056Z,17.17
2019-05-01T00:20:49.027Z,15.17
2019-05-01T00:23:18.000Z,15.07
2019-05-01T00:25:47.024Z,15.77
2019-05-01T00:28:16.929Z,16.87
2019-05-01T00:30:45.980Z,15.77
2019-05-01T00:33:14.972Z,17.27
2019-05-01T00:35:43.785Z,16.40
2019-05-01T00:38:12.798Z,16.73
2019-05-01T00:40:41.884Z,17.83
2019-05-01T00:43:10.796Z,18.97
2019-05-01T00:45:39.692Z,16.43
2019-05-01T00:48:08.680Z,18.53
2019-05-01T00:50:37.596Z,16.17
2019-05-01T00:53:06.436Z,16.90
2019-05-01T00:55:48.712Z,17.30
2019-05-01T00:58:29.051Z,17.90
2019-05-01T01:01:15.629Z,17.70
2019-05-01T01:03:44.664Z,19.23
2019-05-01T01:06:13.722Z,18.87
2019-05-01T01:08:42.710Z,17.70
2019-05-01T01:11:11.643Z,18.07
2019-05-01T01:13:40.600Z,19.07
2019-05-01T01:16:09.585Z,17.47
2019-05-01T01:18:38.546Z,18.30
2019-05-01T01:21:07.544Z,18.20
2019-05-01T01:23:36.566Z,16.87
2019-05-01T01:26:05.454Z,18.00
2019-05-01T01:28:34.526Z,18.80
2019-05-01T01:31:03.520Z,17.23
2019-05-01T01:33:32.444Z,18.00
2019-05-01T01:36:01.584Z,19.33
2019-05-01T01:38:30.587Z,18.50
2019-05-01T01:40:59.878Z,17.70
2019-05-01T01:43:41.927Z,18.97
2019-05-01T01:46:12.771Z,21.50
2019-05-01T01:48:41.720Z,18.30
2019-05-01T01:51:10.604Z,19.30
2019-05-01T01:53:39.882Z,21.15
2019-05-01T01:56:09.248Z,18.33
2019-05-01T01:58:38.725Z,19.70
2019-05-01T02:01:29.480Z,18.20
2019-05-01T02:11:27.327Z,19.00
2019-05-01T02:13:56.936Z,19.70
2019-05-01T02:16:26.444Z,20.80
2019-05-01T02:18:55.412Z,19.90
2019-05-01T02:21:24.308Z,20.80
2019-05-01T02:23:53.276Z,19.13
2019-05-01T02:26:24.253Z,19.97
2019-05-01T02:29:04.482Z,18.03
2019-05-01T02:31:39.500Z,19.70
2019-05-01T02:34:09.578Z,20.17
2019-05-01T02:36:39.769Z,20.20
2019-05-01T02:39:10.121Z,18.43
2019-05-01T02:41:43.471Z,19.00
2019-05-01T02:44:19.502Z,21.77
2019-05-01T02:46:51.163Z,18.87
2019-05-01T02:49:32.465Z,17.80
2019-05-01T02:52:03.429Z,19.57
2019-05-01T02:54:33.609Z,19.43
2019-05-01T02:57:09.097Z,22.63
2019-05-01T02:59:39.779Z,19.93
2019-05-01T03:02:10.125Z,19.87
2019-05-01T03:04:39.825Z,19.73
2019-05-01T03:07:09.803Z,20.93
2019-05-01T03:09:39.990Z,20.27
2019-05-01T03:12:09.364Z,22.37
2019-05-01T03:14:41.606Z,19.70
2019-05-01T03:17:30.837Z,19.63
2019-05-01T03:20:10.657Z,20.27
2019-05-01T03:22:57.952Z,18.87
2019-05-01T03:25:27.600Z,19.60
2019-05-01T03:27:56.677Z,18.90
2019-05-01T03:30:26.401Z,19.63
2019-05-01T03:32:55.637Z,21.17
2019-05-01T03:35:24.786Z,19.90
2019-05-01T03:37:53.825Z,19.87
2019-05-01T03:40:22.958Z,22.20
2019-05-01T03:42:53.000Z,20.50
2019-05-01T03:45:23.372Z,20.00
2019-05-01T03:47:53.018Z,19.03
2019-05-01T03:50:22.561Z,18.90
2019-05-01T03:52:51.542Z,19.97
2019-05-01T03:55:20.812Z,21.37
2019-05-01T03:57:50.223Z,17.90
2019-05-01T04:00:26.141Z,18.90
2019-05-01T04:03:13.732Z,19.47
2019-05-01T04:05:43.567Z,22.00
2019-05-01T04:08:12.539Z,21.33
2019-05-01T04:10:41.597Z,18.80
2019-05-01T04:13:10.548Z,19.60
2019-05-01T04:15:40.205Z,18.57
2019-05-01T04:18:09.406Z,19.27
2019-05-01T04:20:39.545Z,21.07
2019-05-01T04:23:08.729Z,19.63
2019-05-01T04:25:38.193Z,19.07
2019-05-01T04:28:25.118Z,19.33
2019-05-01T04:31:16.368Z,18.10
2019-05-01T04:33:46.869Z,19.83
2019-05-01T04:36:22.053Z,19.60
2019-05-01T04:38:52.176Z,18.80
2019-05-01T04:41:21.839Z,20.67
2019-05-01T04:43:51.213Z,19.30
2019-05-01T04:46:20.401Z,21.13
2019-05-01T04:48:49.833Z,20.00
2019-05-01T04:51:19.184Z,20.90
2019-05-01T04:53:48.541Z,21.33
2019-05-01T04:56:17.933Z,20.57
2019-05-01T04:58:47.144Z,21.70
2019-05-01T05:01:16.120Z,20.67
2019-05-01T05:03:47.054Z,23.50
2019-05-01T05:06:16.747Z,21.03
2019-05-01T05:08:45.736Z,21.73
2019-05-01T05:11:20.354Z,22.10
2019-05-01T05:14:13.732Z,21.43
2019-05-01T05:16:55.925Z,21.07
2019-05-01T05:19:24.994Z,22.13
2019-05-01T05:21:53.839Z,21.83
2019-05-01T05:24:23.128Z,20.83
2019-05-01T05:26:52.368Z,23.00
2019-05-01T05:29:22.937Z,21.67
2019-05-01T05:31:52.944Z,23.53
2019-05-01T05:34:23.895Z,20.97
2019-05-01T05:36:56.308Z,21.13
2019-05-01T05:39:33.176Z,21.63
2019-05-01T05:42:04.036Z,21.70
2019-05-01T05:44:34.429Z,22.53
2019-05-01T05:47:03.527Z,20.60
2019-05-01T05:49:33.084Z,21.37
2019-05-01T05:52:20.209Z,22.00
2019-05-01T05:55:09.217Z,21.90
2019-05-01T05:57:57.876Z,23.17
2019-05-01T06:00:39.568Z,22.87
2019-05-01T06:03:31.663Z,22.70
2019-05-01T06:06:17.684Z,22.00
2019-05-01T06:08:49.613Z,22.00
2019-05-01T06:11:54.349Z,21.30
2019-05-01T06:14:43.949Z,21.37
2019-05-01T06:17:23.788Z,22.90
2019-05-01T06:20:07.180Z,22.47
2019-05-01T06:22:55.372Z,22.20
2019-05-01T06:25:28.759Z,23.37
2019-05-01T06:27:58.264Z,24.20
2019-05-01T06:30:27.621Z,23.10
2019-05-01T06:32:56.621Z,21.57
2019-05-01T06:35:25.656Z,21.63
2019-05-01T06:38:13.185Z,22.73
2019-05-01T06:40:44.867Z,22.20
2019-05-01T06:43:27.269Z,24.10
2019-05-01T06:46:14.625Z,21.53
2019-05-01T06:48:53.382Z,21.37
2019-05-01T06:51:48.120Z,24.40
2019-05-01T06:54:17.754Z,22.10
2019-05-01T06:56:49.931Z,24.90
2019-05-01T06:59:19.616Z,24.70
2019-05-01T07:01:53.308Z,28.63
2019-05-01T07:04:22.405Z,22.13
2019-05-01T07:06:55.185Z,30.50
2019-05-01T07:09:28.199Z,25.93
2019-05-01T07:11:56.625Z,23.70
2019-05-01T07:14:26.637Z,24.70
2019-05-01T07:16:55.928Z,21.57
2019-05-01T07:19:43.562Z,24.43
2019-05-01T07:22:12.602Z,23.87
2019-05-01T07:24:42.294Z,25.13
2019-05-01T07:27:11.350Z,29.27
2019-05-01T07:29:45.029Z,25.50
2019-05-01T07:32:15.075Z,25.00
2019-05-01T07:34:43.752Z,25.10
2019-05-01T07:37:13.152Z,25.47
2019-05-01T07:39:44.812Z,28.53
2019-05-01T07:42:27.952Z,25.43
2019-05-01T07:45:03.799Z,25.43
2019-05-01T07:47:37.923Z,23.53
2019-05-01T07:50:09.668Z,24.20
2019-05-01T07:52:39.107Z,28.43
2019-05-01T07:55:13.166Z,24.60
2019-05-01T07:57:41.306Z,24.23
2019-05-01T08:00:20.242Z,22.43
2019-05-01T08:02:49.433Z,24.63
2019-05-01T08:05:18.492Z,25.37
2019-05-01T08:07:47.444Z,23.40
2019-05-01T08:10:16.516Z,23.20
2019-05-01T08:12:45.432Z,24.50
2019-05-01T08:15:14.627Z,23.77
2019-05-01T08:17:48.719Z,27.67
2019-05-01T08:20:22.102Z,22.93
2019-05-01T08:22:51.308Z,26.57
2019-05-01T08:25:20.353Z,24.03
2019-05-01T08:27:58.141Z,25.93
2019-05-01T08:30:55.661Z,26.03
2019-05-01T08:33:40.265Z,24.77
2019-05-01T08:36:11.859Z,26.60
2019-05-01T08:38:40.779Z,22.60
2019-05-01T08:41:09.688Z,22.63
2019-05-01T08:43:39.212Z,25.10
2019-05-01T08:46:25.833Z,24.63
2019-05-01T08:49:06.805Z,25.47
2019-05-01T08:51:35.976Z,23.10
2019-05-01T08:54:05.696Z,23.73
2019-05-01T08:56:34.616Z,25.70
2019-05-01T08:59:03.593Z,24.33
2019-05-01T09:01:32.527Z,23.53
2019-05-01T09:04:12.380Z,22.93
2019-05-01T09:06:34.843Z,26.77
2019-05-01T09:09:08.028Z,22.20
2019-05-01T09:11:36.325Z,23.77
2019-05-01T09:14:05.917Z,21.93
2019-05-01T09:16:34.876Z,25.90
2019-05-01T09:19:04.279Z,20.17
2019-05-01T09:21:37.635Z,23.93
2019-05-01T09:24:04.021Z,20.30
2019-05-01T09:26:39.837Z,23.90
2019-05-01T09:29:16.080Z,22.00
2019-05-01T09:31:42.640Z,21.37
2019-05-01T09:34:14.137Z,20.77
2019-05-01T09:36:42.296Z,22.37
2019-05-01T09:39:12.985Z,27.00
2019-05-01T09:41:43.196Z,21.77
2019-05-01T09:44:12.599Z,20.50
2019-05-01T09:46:41.605Z,22.93
2019-05-01T09:49:14.323Z,21.30
2019-05-01T09:51:51.986Z,24.10
2019-05-01T09:54:32.983Z,23.83
2019-05-01T09:57:02.327Z,23.10
2019-05-01T09:59:31.173Z,24.23
2019-05-01T10:02:02.935Z,19.00
2019-05-01T10:04:32.385Z,21.23
2019-05-01T10:07:02.260Z,20.40
2019-05-01T10:09:31.492Z,15.90
2019-05-01T10:12:19.489Z,18.93
2019-05-01T10:14:48.392Z,19.83
2019-05-01T10:17:17.292Z,18.13
2019-05-01T10:19:46.284Z,20.20
2019-05-01T10:22:15.269Z,17.63
2019-05-01T10:24:44.412Z,17.50
2019-05-01T10:27:17.315Z,17.47
2019-05-01T10:30:04.201Z,17.67
2019-05-01T10:32:40.712Z,18.67
2019-05-01T10:35:19.217Z,17.50
2019-05-01T10:37:47.288Z,14.90
2019-05-01T10:40:16.516Z,16.83
2019-05-01T10:42:45.902Z,16.20
2019-05-01T10:45:15.029Z,15.43
2019-05-01T10:47:43.989Z,16.23
2019-05-01T10:50:12.962Z,16.00
2019-05-01T10:52:42.201Z,12.90
2019-05-01T10:55:11.612Z,12.70
2019-05-01T10:57:42.242Z,10.90
2019-05-01T11:00:11.854Z,10.10
2019-05-01T11:02:40.862Z,10.23
2019-05-01T11:05:10.089Z,12.17
2019-05-01T11:07:39.376Z,12.47
2019-05-01T11:10:10.184Z,13.50
2019-05-01T11:12:39.042Z,12.43
2019-05-01T11:15:09.050Z,11.77
2019-05-01T11:17:38.060Z,14.37
2019-05-01T11:20:08.259Z,11.43
2019-05-01T11:22:37.202Z,11.80
2019-05-01T11:25:06.856Z,14.70
2019-05-01T11:27:35.640Z,10.80
2019-05-01T11:30:05.602Z,9.20
2019-05-01T11:32:42.784Z,10.23
2019-05-01T11:35:36.632Z,11.60
2019-05-01T11:38:39.898Z,13.97
2019-05-01T11:41:13.837Z,12.57
2019-05-01T11:43:42.828Z,11.03
2019-05-01T11:46:11.890Z,10.63
2019-05-01T11:48:40.898Z,9.40
2019-05-01T11:51:19.072Z,10.63
2019-05-01T11:53:47.956Z,9.67
2019-05-01T11:56:16.773Z,10.87
2019-05-01T11:58:45.777Z,10.57
2019-05-01T12:01:16.320Z,12.67
2019-05-01T12:03:45.392Z,12.47
2019-05-01T12:06:22.682Z,13.70
2019-05-01T12:08:45.036Z,11.13
2019-05-01T12:11:15.528Z,11.97
2019-05-01T12:13:44.552Z,13.87
2019-05-01T12:16:39.017Z,12.67
2019-05-01T12:19:10.101Z,9.60
2019-05-01T12:21:40.265Z,11.00
2019-05-01T12:24:09.196Z,12.13
2019-05-01T12:26:38.140Z,12.97
2019-05-01T12:29:07.040Z,13.50
2019-05-01T12:31:36.057Z,11.77
2019-05-01T12:34:05.457Z,15.33
2019-05-01T12:36:36.373Z,16.13
2019-05-01T12:39:17.439Z,11.33
2019-05-01T12:41:54.788Z,11.50
2019-05-01T12:44:23.676Z,12.20
2019-05-01T12:47:17.406Z,11.93
2019-05-01T12:49:47.996Z,11.10
2019-05-01T12:52:25.442Z,12.53
2019-05-01T12:55:02.446Z,12.13
2019-05-01T12:57:31.248Z,11.80
2019-05-01T13:00:08.355Z,13.10
2019-05-01T13:02:32.592Z,12.80
2019-05-01T13:05:01.767Z,13.10
2019-05-01T13:07:31.264Z,14.43
2019-05-01T13:10:00.273Z,11.77
2019-05-01T13:12:29.241Z,13.70
2019-05-01T13:14:58.333Z,12.73
2019-05-01T13:17:27.556Z,12.17
2019-05-01T13:19:56.471Z,13.13
2019-05-01T13:22:25.518Z,11.23
2019-05-01T13:24:54.376Z,10.67
2019-05-01T13:27:35.800Z,10.83
2019-05-01T13:30:14.256Z,13.43
2019-05-01T13:32:45.843Z,13.40
2019-05-01T13:35:15.163Z,12.60
2019-05-01T13:37:44.513Z,12.80
2019-05-01T13:40:14.161Z,14.00
2019-05-01T13:42:43.397Z,11.20
2019-05-01T13:45:14.064Z,11.73
2019-05-01T13:47:42.969Z,12.50
2019-05-01T13:50:13.624Z,10.03
2019-05-01T13:52:42.461Z,9.67
2019-05-01T13:55:11.868Z,11.43
2019-05-01T13:57:40.816Z,9.77
2019-05-01T14:00:10.859Z,10.10
2019-05-01T14:02:39.824Z,9.00
2019-05-01T14:05:09.396Z,9.97
2019-05-01T14:07:38.304Z,10.10
2019-05-01T14:10:07.607Z,8.87
2019-05-01T14:12:36.418Z,11.20
2019-05-01T14:15:05.981Z,9.40
2019-05-01T14:17:34.821Z,8.63
2019-05-01T14:20:27.116Z,10.30
2019-05-01T14:23:03.721Z,9.00
2019-05-01T14:25:50.498Z,9.60
2019-05-01T14:28:19.444Z,8.20
2019-05-01T14:30:48.315Z,8.67
2019-05-01T14:33:17.268Z,7.63
2019-05-01T14:35:46.280Z,8.40
2019-05-01T14:38:15.276Z,8.80
2019-05-01T14:40:44.156Z,7.80
2019-05-01T14:43:13.130Z,8.83
2019-05-01T14:45:42.068Z,7.90
2019-05-01T14:48:11.032Z,7.97
2019-05-01T14:50:40.276Z,10.03
2019-05-01T14:53:09.255Z,7.73
2019-05-01T14:55:38.426Z,8.57
2019-05-01T14:58:07.292Z,8.03
2019-05-01T15:00:36.421Z,7.23
2019-05-01T15:03:05.814Z,10.37
2019-05-01T15:05:34.965Z,7.73
2019-05-01T15:08:04.924Z,7.23
2019-05-01T15:10:33.971Z,7.57
2019-05-01T15:13:10.062Z,7.17
2019-05-01T15:15:54.456Z,8.33
2019-05-01T15:18:31.466Z,8.57
2019-05-01T15:21:00.448Z,6.37
2019-05-01T15:23:29.584Z,7.57
2019-05-01T15:25:58.496Z,6.43
2019-05-01T15:28:27.355Z,5.77
2019-05-01T15:30:56.232Z,6.90
2019-05-01T15:33:25.328Z,7.23
2019-05-01T15:35:54.340Z,6.60
2019-05-01T15:38:23.300Z,7.30
2019-05-01T15:41:00.056Z,7.63
2019-05-01T15:43:30.975Z,6.43
2019-05-01T15:45:59.947Z,7.93
2019-05-01T15:48:28.849Z,6.97
2019-05-01T15:50:57.736Z,6.97
2019-05-01T15:53:26.631Z,7.27
2019-05-01T15:55:55.468Z,8.87
2019-05-01T15:58:24.496Z,6.67
2019-05-01T16:00:53.260Z,7.60
2019-05-01T16:03:22.040Z,6.70
2019-05-01T16:05:50.932Z,8.33
2019-05-01T16:08:20.029Z,7.80
2019-05-01T16:11:08.196Z,7.57
2019-05-01T16:13:37.468Z,7.07
2019-05-01T16:16:06.516Z,7.13
2019-05-01T16:18:35.476Z,7.63
2019-05-01T16:21:04.740Z,9.27
2019-05-01T16:23:33.616Z,7.10
2019-05-01T16:26:02.670Z,6.47
2019-05-01T16:28:31.712Z,7.43
2019-05-01T16:31:00.708Z,8.07
2019-05-01T16:33:29.597Z,6.80
2019-05-01T16:35:58.721Z,7.40
2019-05-01T16:38:35.764Z,8.40
2019-05-01T16:41:07.477Z,9.53
2019-05-01T16:43:36.738Z,8.50
2019-05-01T16:46:06.489Z,6.70
2019-05-01T16:48:35.656Z,7.53
2019-05-01T16:51:04.720Z,8.50
2019-05-01T16:53:33.570Z,7.30
2019-05-01T16:56:02.750Z,8.37
2019-05-01T16:58:33.161Z,9.03
2019-05-01T17:01:07.204Z,7.10
2019-05-01T17:04:01.013Z,8.30
2019-05-01T17:06:51.768Z,7.97
2019-05-01T17:09:34.924Z,8.03
2019-05-01T17:12:04.399Z,7.47
2019-05-01T17:14:33.791Z,8.33
2019-05-01T17:17:04.356Z,9.03
2019-05-01T17:19:33.497Z,7.40
2019-05-01T17:22:02.464Z,8.20
2019-05-01T17:24:31.436Z,6.80
2019-05-01T17:27:00.320Z,9.20
2019-05-01T17:29:29.225Z,8.30
2019-05-01T17:31:58.064Z,7.43
2019-05-01T17:34:30.632Z,7.87
2019-05-01T17:36:57.869Z,8.73
2019-05-01T17:39:26.724Z,7.80
2019-05-01T17:41:57.498Z,9.77
2019-05-01T17:44:29.385Z,8.80
2019-05-01T17:46:58.528Z,10.47
2019-05-01T17:49:27.430Z,8.20
2019-05-01T17:51:56.647Z,7.93
2019-05-01T17:54:25.579Z,9.20
2019-05-01T17:56:55.779Z,9.83
2019-05-01T17:59:25.069Z,11.57
2019-05-01T18:02:13.241Z,10.60
2019-05-01T18:09:51.487Z,7.87
2019-05-01T18:12:23.442Z,8.20
2019-05-01T18:14:50.517Z,8.03
2019-05-01T18:17:19.333Z,8.40
2019-05-01T18:19:48.548Z,7.20
2019-05-01T18:22:37.295Z,7.53
2019-05-01T18:25:19.009Z,11.73
2019-05-01T18:28:02.802Z,9.50
2019-05-01T18:30:36.159Z,8.73
2019-05-01T18:33:05.737Z,9.20
2019-05-01T18:35:34.799Z,7.47
2019-05-01T18:38:19.497Z,7.90
2019-05-01T18:40:51.329Z,7.97
2019-05-01T18:43:20.203Z,7.37
2019-05-01T18:45:51.708Z,7.77
2019-05-01T18:48:21.920Z,8.40
2019-05-01T18:50:55.035Z,8.70
2019-05-01T18:53:23.525Z,10.07
2019-05-01T18:55:52.572Z,8.57
2019-05-01T18:58:22.360Z,9.10
2019-05-01T19:00:51.828Z,7.93
2019-05-01T19:03:22.423Z,8.90
2019-05-01T19:05:51.625Z,10.53
2019-05-01T19:08:21.888Z,9.60
2019-05-01T19:10:50.790Z,8.47
2019-05-01T19:13:20.484Z,10.00
2019-05-01T19:15:49.426Z,9.50
2019-05-01T19:18:18.842Z,8.67
2019-05-01T19:20:58.864Z,9.80
2019-05-01T19:23:22.100Z,8.77
2019-05-01T19:25:50.813Z,10.53
2019-05-01T19:28:20.624Z,9.50
2019-05-01T19:30:49.762Z,10.00
2019-05-01T19:33:18.992Z,11.60
2019-05-01T19:35:48.541Z,10.73
2019-05-01T19:38:18.169Z,11.47
2019-05-01T19:40:47.080Z,11.67
2019-05-01T19:43:15.902Z,11.87
2019-05-01T19:45:45.284Z,15.10
2019-05-01T19:48:14.824Z,10.57
2019-05-01T19:50:47.941Z,11.70
2019-05-01T19:53:15.914Z,10.30
2019-05-01T19:55:46.741Z,16.00
2019-05-01T20:03:24.463Z,11.60
2019-05-01T20:15:46.796Z,11.20
2019-05-01T20:18:16.136Z,11.80
2019-05-01T20:20:45.125Z,13.33
2019-05-01T20:23:14.076Z,13.17
2019-05-01T20:25:43.088Z,13.57
2019-05-01T20:28:12.274Z,16.17
2019-05-01T20:30:41.386Z,13.30
2019-05-01T20:33:10.365Z,15.97
2019-05-01T20:38:07.253Z,13.53
2019-05-01T20:40:36.273Z,11.13
2019-05-01T20:43:07.152Z,11.50
2019-05-01T20:45:36.333Z,12.20
2019-05-01T20:48:05.840Z,11.73
2019-05-01T20:50:35.044Z,11.30
2019-05-01T20:53:04.043Z,10.33
2019-05-01T20:55:33.021Z,10.70
2019-05-01T20:58:21.092Z,10.77
2019-05-01T21:01:03.160Z,10.93
2019-05-01T21:03:32.546Z,11.57
2019-05-01T21:06:19.541Z,13.83
2019-05-01T21:08:54.340Z,10.20
2019-05-01T21:14:14.837Z,11.03
2019-05-01T21:16:26.085Z,10.90
2019-05-01T21:18:54.881Z,11.83
2019-05-01T21:21:24.113Z,11.00
2019-05-01T21:23:56.656Z,11.40
2019-05-01T21:26:23.751Z,9.87
2019-05-01T21:28:54.086Z,11.27
2019-05-01T21:31:24.066Z,10.03
2019-05-01T21:33:53.655Z,12.90
2019-05-01T21:36:22.769Z,12.03
2019-05-01T21:38:51.932Z,10.93
2019-05-01T21:41:22.456Z,11.27
2019-05-01T21:43:52.961Z,11.50
2019-05-01T21:46:22.753Z,11.57
2019-05-01T21:48:53.471Z,12.87
2019-05-01T21:51:22.823Z,12.80
2019-05-01T21:53:52.880Z,15.73
2019-05-01T21:56:21.948Z,10.70
2019-05-01T21:58:51.014Z,14.20
2019-05-01T22:01:19.976Z,15.13
2019-05-01T22:03:52.560Z,13.73
2019-05-01T22:06:19.600Z,12.97
2019-05-01T22:08:48.916Z,11.20
2019-05-01T22:11:17.895Z,12.57
2019-05-01T22:13:46.864Z,12.13
2019-05-01T22:16:23.740Z,12.90
2019-05-01T22:19:01.220Z,13.83
2019-05-01T22:21:47.894Z,12.10
2019-05-01T22:24:35.389Z,12.30
2019-05-01T22:27:08.099Z,12.27
2019-05-01T22:29:41.949Z,12.10
2019-05-01T22:32:38.763Z,10.57
2019-05-01T22:35:16.537Z,11.47
2019-05-01T22:37:45.452Z,12.53
2019-05-01T22:40:17.237Z,11.80
2019-05-01T22:42:54.940Z,12.27
2019-05-01T22:45:24.844Z,13.17
2019-05-01T22:47:54.096Z,13.30
2019-05-01T22:50:23.025Z,12.40
2019-05-01T22:52:52.052Z,12.47
2019-05-01T22:55:25.454Z,12.67
2019-05-01T22:57:52.103Z,11.90
2019-05-01T23:00:51.616Z,14.27
2019-05-01T23:03:24.863Z,13.47
2019-05-01T23:05:54.065Z,16.00
2019-05-01T23:08:23.341Z,14.50
2019-05-01T23:10:52.336Z,13.50
2019-05-01T23:13:21.297Z,14.03
2019-05-01T23:15:51.500Z,15.77
2019-05-01T23:18:21.294Z,14.37
2019-05-01T23:20:50.172Z,15.30
2019-05-01T23:23:19.068Z,17.17
2019-05-01T23:25:47.879Z,17.40
2019-05-01T23:28:16.668Z,19.30
2019-05-01T23:30:45.492Z,19.50
2019-05-01T23:33:14.408Z,23.53
2019-05-01T23:35:43.679Z,20.60
2019-05-01T23:38:12.640Z,20.87
2019-05-01T23:40:41.599Z,17.90
2019-05-01T23:43:10.356Z,20.77
2019-05-01T23:45:39.328Z,25.17
2019-05-01T23:48:08.264Z,23.93
2019-05-01T23:50:37.059Z,22.80
2019-05-01T23:53:09.077Z,22.00
2019-05-01T23:55:36.436Z,23.60
2019-05-01T23:58:05.344Z,23.37
